createdAt,value
2023-05-13T00:00:31.516Z,95.03
2023-05-13T00:02:58.265Z,95.04
2023-05-13T00:05:25.044Z,95.47
2023-05-13T00:07:51.691Z,95.30
2023-05-13T00:10:20.553Z,95.74
2023-05-13T00:12:47.910Z,94.91
2023-05-13T00:15:14.555Z,94.26
2023-05-13T00:17:41.296Z,94.56
2023-05-13T00:20:08.457Z,95.65
2023-05-13T00:22:35.207Z,94.85
2023-05-13T00:25:01.852Z,95.12
2023-05-13T00:27:28.456Z,95.29
2023-05-13T00:29:55.080Z,94.86
2023-05-13T00:32:21.708Z,94.54
2023-05-13T00:34:48.473Z,94.48
2023-05-13T00:37:15.170Z,94.42
2023-05-13T00:39:42.177Z,94.94
2023-05-13T00:42:11.244Z,95.09
2023-05-13T00:44:38.560Z,94.35
2023-05-13T00:47:11.219Z,94.51
2023-05-13T00:49:38.161Z,95.00
2023-05-13T00:52:05.501Z,94.72
2023-05-13T00:54:32.546Z,96.30
2023-05-13T00:56:59.532Z,96.28
2023-05-13T00:59:29.073Z,96.10
2023-05-13T01:02:07.845Z,95.67
2023-05-13T01:05:12.114Z,94.83
2023-05-13T01:07:50.382Z,94.63
2023-05-13T01:10:30.353Z,94.83
2023-05-13T01:13:03.245Z,95.15
2023-05-13T01:15:31.345Z,95.19
2023-05-13T01:18:06.303Z,95.51
2023-05-13T01:20:34.741Z,96.78
2023-05-13T01:23:01.437Z,95.44
2023-05-13T01:25:28.550Z,95.16
2023-05-13T01:27:55.775Z,96.28
2023-05-13T01:30:23.948Z,97.47
2023-05-13T01:32:51.990Z,97.04
2023-05-13T01:35:20.706Z,97.46
2023-05-13T01:37:48.915Z,97.10
2023-05-13T01:40:31.082Z,96.64
2023-05-13T01:42:59.291Z,96.61
2023-05-13T01:45:28.835Z,96.69
2023-05-13T01:47:55.590Z,96.75
2023-05-13T01:50:22.572Z,96.79
2023-05-13T01:52:49.380Z,95.87
2023-05-13T01:55:16.126Z,95.44
2023-05-13T01:57:42.743Z,95.94
2023-05-13T02:00:09.985Z,96.07
2023-05-13T02:02:36.738Z,96.41
2023-05-13T02:05:03.591Z,96.51
2023-05-13T02:07:30.283Z,96.40
2023-05-13T02:09:59.969Z,97.06
2023-05-13T02:12:27.266Z,96.03
2023-05-13T02:14:54.819Z,95.69
2023-05-13T02:17:22.611Z,95.76
2023-05-13T02:19:49.369Z,95.93
2023-05-13T02:22:16.596Z,97.29
2023-05-13T02:24:43.292Z,96.89
2023-05-13T02:27:12.605Z,97.67
2023-05-13T02:29:39.345Z,97.03
2023-05-13T02:32:06.563Z,97.28
2023-05-13T02:34:33.400Z,96.32
2023-05-13T02:37:00.133Z,97.02
2023-05-13T02:39:27.006Z,97.28
2023-05-13T02:41:53.653Z,97.19
2023-05-13T02:44:20.348Z,97.56
2023-05-13T02:46:46.992Z,97.20
2023-05-13T02:49:16.091Z,97.09
2023-05-13T02:51:42.787Z,97.14
2023-05-13T02:54:09.397Z,97.46
2023-05-13T02:56:36.296Z,97.35
2023-05-13T02:59:03.008Z,97.89
2023-05-13T03:01:29.826Z,98.70
2023-05-13T03:03:56.592Z,98.70
2023-05-13T03:06:23.269Z,98.49
2023-05-13T03:08:50.057Z,98.83
2023-05-13T03:11:16.912Z,98.63
2023-05-13T03:13:43.553Z,98.80
2023-05-13T03:16:10.369Z,98.89
2023-05-13T03:18:37.059Z,99.11
2023-05-13T03:21:03.722Z,99.37
2023-05-13T03:23:30.886Z,99.56
2023-05-13T03:25:57.567Z,100.00
2023-05-13T03:28:24.211Z,100.00
2023-05-13T03:30:51.191Z,100.00
2023-05-13T03:33:18.284Z,99.74
2023-05-13T03:35:45.702Z,99.07
2023-05-13T03:38:12.537Z,98.86
2023-05-13T03:40:39.223Z,99.19
2023-05-13T03:43:06.132Z,99.00
2023-05-13T03:45:32.914Z,99.50
2023-05-13T03:47:59.735Z,99.55
2023-05-13T03:50:26.633Z,98.99
2023-05-13T03:52:53.345Z,98.85
2023-05-13T03:55:20.189Z,99.28
2023-05-13T03:57:49.259Z,100.00
2023-05-13T04:00:16.435Z,100.00
2023-05-13T04:02:43.504Z,100.00
2023-05-13T04:05:11.061Z,100.00
2023-05-13T04:07:37.849Z,100.00
2023-05-13T04:10:04.948Z,100.00
2023-05-13T04:12:33.398Z,100.00
2023-05-13T04:15:20.663Z,100.00
2023-05-13T04:17:47.481Z,100.00
2023-05-13T04:20:14.641Z,100.00
2023-05-13T04:22:41.391Z,100.00
2023-05-13T04:25:08.568Z,100.00
2023-05-13T04:27:35.405Z,100.00
2023-05-13T04:30:02.336Z,100.00
2023-05-13T04:32:29.103Z,100.00
2023-05-13T04:34:55.888Z,100.00
2023-05-13T04:37:24.981Z,100.00
2023-05-13T04:39:51.635Z,100.00
2023-05-13T04:42:18.285Z,100.00
2023-05-13T04:44:45.369Z,100.00
2023-05-13T04:47:11.969Z,100.00
2023-05-13T04:49:38.543Z,100.00
2023-05-13T04:52:06.637Z,100.00
2023-05-13T04:54:35.850Z,100.00
2023-05-13T04:57:03.462Z,100.00
2023-05-13T04:59:30.266Z,100.00
2023-05-13T05:01:56.973Z,100.00
2023-05-13T05:04:25.193Z,100.00
2023-05-13T05:06:51.832Z,100.00
2023-05-13T05:09:18.951Z,100.00
2023-05-13T05:11:45.720Z,100.00
2023-05-13T05:14:12.326Z,100.00
2023-05-13T05:16:38.905Z,100.00
2023-05-13T05:19:05.634Z,100.00
2023-05-13T05:21:32.285Z,100.00
2023-05-13T05:23:59.909Z,100.00
2023-05-13T05:26:26.793Z,100.00
2023-05-13T05:28:53.495Z,100.00
2023-05-13T05:31:20.290Z,100.00
2023-05-13T05:33:46.934Z,100.00
2023-05-13T05:36:13.542Z,100.00
2023-05-13T05:38:41.733Z,100.00
2023-05-13T05:41:08.490Z,100.00
2023-05-13T05:43:35.187Z,100.00
2023-05-13T05:46:01.837Z,100.00
2023-05-13T05:48:28.480Z,100.00
2023-05-13T05:50:56.422Z,100.00
2023-05-13T05:53:22.991Z,100.00
2023-05-13T05:55:51.633Z,100.00
2023-05-13T05:58:19.746Z,100.00
2023-05-13T06:00:46.506Z,100.00
2023-05-13T06:03:14.148Z,100.00
2023-05-13T06:05:41.136Z,100.00
2023-05-13T06:08:07.755Z,100.00
2023-05-13T06:10:35.319Z,100.00
2023-05-13T06:13:02.425Z,100.00
2023-05-13T06:15:29.073Z,100.00
2023-05-13T06:17:56.047Z,99.38
2023-05-13T06:20:23.169Z,98.68
2023-05-13T06:22:50.086Z,98.77
2023-05-13T06:25:16.922Z,98.23
2023-05-13T06:27:43.523Z,98.22
2023-05-13T06:30:10.862Z,97.85
2023-05-13T06:32:39.371Z,97.80
2023-05-13T06:35:07.907Z,97.58
2023-05-13T06:37:34.692Z,97.18
2023-05-13T06:40:01.389Z,96.81
2023-05-13T06:42:28.049Z,96.67
2023-05-13T06:44:54.704Z,96.12
2023-05-13T06:47:24.032Z,96.08
2023-05-13T06:49:50.682Z,96.18
2023-05-13T06:52:17.411Z,96.46
2023-05-13T06:54:44.020Z,95.44
2023-05-13T06:57:10.687Z,94.39
2023-05-13T06:59:37.456Z,94.70
2023-05-13T07:02:04.619Z,94.91
2023-05-13T07:04:31.450Z,94.72
2023-05-13T07:06:58.165Z,94.62
2023-05-13T07:09:24.966Z,93.94
2023-05-13T07:11:51.686Z,92.74
2023-05-13T07:14:18.337Z,92.20
2023-05-13T07:16:45.018Z,91.34
2023-05-13T07:19:11.666Z,90.18
2023-05-13T07:21:39.061Z,88.89
2023-05-13T07:24:05.897Z,88.86
2023-05-13T07:26:32.607Z,87.82
2023-05-13T07:28:59.729Z,84.52
2023-05-13T07:31:26.763Z,84.16
2023-05-13T07:33:53.723Z,83.72
2023-05-13T07:36:20.456Z,81.73
2023-05-13T07:38:47.069Z,81.57
2023-05-13T07:41:13.779Z,80.39
2023-05-13T07:43:40.985Z,74.84
2023-05-13T07:46:07.624Z,75.79
2023-05-13T07:48:34.270Z,69.66
2023-05-13T07:51:01.491Z,73.15
2023-05-13T07:53:28.224Z,69.70
2023-05-13T07:55:54.972Z,70.17
2023-05-13T07:58:21.765Z,65.53
2023-05-13T08:00:49.644Z,66.51
2023-05-13T08:03:17.153Z,64.11
2023-05-13T08:05:44.125Z,66.58
2023-05-13T08:08:10.863Z,66.23
2023-05-13T08:10:37.608Z,63.17
2023-05-13T08:13:04.327Z,64.47
2023-05-13T08:15:30.983Z,63.65
2023-05-13T08:17:57.742Z,61.68
2023-05-13T08:20:29.910Z,59.26
2023-05-13T08:22:58.353Z,53.04
2023-05-13T08:25:25.442Z,50.50
2023-05-13T08:27:52.242Z,51.47
2023-05-13T08:30:19.084Z,54.22
2023-05-13T08:32:46.164Z,51.74
2023-05-13T08:35:12.893Z,51.40
2023-05-13T08:37:39.871Z,54.65
2023-05-13T08:40:08.289Z,53.27
2023-05-13T08:42:38.216Z,52.94
2023-05-13T08:45:05.786Z,52.63
2023-05-13T08:47:50.368Z,53.65
2023-05-13T08:50:17.994Z,54.60
2023-05-13T08:52:44.873Z,53.84
2023-05-13T08:55:11.879Z,55.29
2023-05-13T08:57:39.646Z,54.08
2023-05-13T09:00:07.108Z,53.91
2023-05-13T09:02:33.745Z,53.71
2023-05-13T09:05:05.033Z,52.71
2023-05-13T09:07:31.849Z,54.63
2023-05-13T09:09:58.890Z,54.78
2023-05-13T09:12:51.732Z,52.84
2023-05-13T09:15:23.813Z,55.81
2023-05-13T09:17:56.290Z,53.80
2023-05-13T09:20:25.463Z,52.81
2023-05-13T09:22:53.642Z,52.93
2023-05-13T09:25:24.513Z,54.83
2023-05-13T09:27:58.864Z,54.76
2023-05-13T09:30:28.699Z,54.23
2023-05-13T09:33:14.320Z,54.29
2023-05-13T09:35:53.797Z,54.19
2023-05-13T09:38:27.792Z,55.06
2023-05-13T09:40:58.603Z,54.33
2023-05-13T09:43:32.336Z,57.06
2023-05-13T09:46:05.039Z,54.26
2023-05-13T09:48:33.562Z,53.77
2023-05-13T09:51:00.375Z,55.33
2023-05-13T09:53:28.525Z,56.95
2023-05-13T09:55:57.144Z,54.78
2023-05-13T09:58:26.733Z,54.55
2023-05-13T10:00:53.840Z,57.98
2023-05-13T10:03:21.062Z,55.81
2023-05-13T10:05:49.933Z,55.74
2023-05-13T10:08:18.274Z,55.68
2023-05-13T10:10:46.673Z,55.96
2023-05-13T10:13:18.199Z,54.34
2023-05-13T10:15:50.015Z,52.54
2023-05-13T10:18:17.913Z,53.46
2023-05-13T10:20:45.024Z,53.85
2023-05-13T10:23:11.746Z,53.50
2023-05-13T10:25:39.294Z,51.08
2023-05-13T10:28:06.771Z,49.45
2023-05-13T10:30:35.960Z,49.71
2023-05-13T10:33:04.069Z,46.91
2023-05-13T10:35:37.511Z,46.72
2023-05-13T10:38:05.208Z,47.67
2023-05-13T10:40:47.758Z,49.09
2023-05-13T10:43:43.849Z,48.15
2023-05-13T10:46:13.970Z,50.21
2023-05-13T10:48:48.665Z,48.01
2023-05-13T10:51:17.368Z,45.42
2023-05-13T10:53:54.858Z,46.62
2023-05-13T10:56:28.847Z,44.88
2023-05-13T10:59:01.462Z,45.21
2023-05-13T11:01:30.602Z,45.14
2023-05-13T11:04:00.680Z,45.27
2023-05-13T11:06:34.281Z,46.25
2023-05-13T11:09:01.578Z,46.24
2023-05-13T11:11:35.785Z,43.52
2023-05-13T11:14:11.295Z,43.46
2023-05-13T11:16:38.370Z,43.13
2023-05-13T11:19:18.447Z,44.90
2023-05-13T11:21:49.911Z,41.54
2023-05-13T11:24:21.968Z,41.74
2023-05-13T11:26:59.080Z,43.55
2023-05-13T11:29:33.621Z,40.42
2023-05-13T11:32:02.018Z,42.21
2023-05-13T11:34:29.627Z,42.44
2023-05-13T11:37:07.267Z,43.10
2023-05-13T11:39:34.001Z,42.70
2023-05-13T11:42:05.186Z,42.52
2023-05-13T11:44:34.379Z,39.03
2023-05-13T11:47:06.237Z,38.75
2023-05-13T11:49:40.602Z,37.61
2023-05-13T11:52:15.401Z,37.76
2023-05-13T11:54:47.556Z,40.55
2023-05-13T11:57:20.750Z,36.32
2023-05-13T11:59:52.394Z,36.22
2023-05-13T12:02:30.531Z,36.70
2023-05-13T12:05:05.833Z,35.89
2023-05-13T12:07:33.305Z,36.08
2023-05-13T12:10:01.989Z,35.20
2023-05-13T12:12:31.024Z,35.50
2023-05-13T12:15:00.522Z,34.62
2023-05-13T12:17:27.703Z,37.66
2023-05-13T12:20:19.273Z,38.89
2023-05-13T12:22:45.898Z,36.28
2023-05-13T12:25:31.395Z,37.57
2023-05-13T12:28:19.059Z,36.20
2023-05-13T12:30:56.695Z,33.90
2023-05-13T12:33:25.660Z,34.46
2023-05-13T12:35:54.700Z,34.93
2023-05-13T12:38:24.606Z,35.81
2023-05-13T12:40:52.419Z,35.57
2023-05-13T12:43:19.876Z,34.56
2023-05-13T12:45:48.418Z,34.24
2023-05-13T12:48:15.053Z,35.26
2023-05-13T12:50:41.672Z,34.05
2023-05-13T12:53:08.339Z,34.00
2023-05-13T12:55:39.929Z,34.04
2023-05-13T12:58:10.994Z,34.77
2023-05-13T13:00:38.153Z,33.10
2023-05-13T13:03:05.179Z,32.41
2023-05-13T13:05:32.082Z,32.06
2023-05-13T13:07:58.731Z,32.48
2023-05-13T13:10:25.312Z,34.24
2023-05-13T13:12:52.305Z,33.52
2023-05-13T13:15:19.057Z,34.11
2023-05-13T13:17:45.724Z,32.64
2023-05-13T13:20:12.751Z,33.98
2023-05-13T13:22:39.561Z,32.41
2023-05-13T13:25:07.159Z,32.97
2023-05-13T13:27:34.727Z,33.91
2023-05-13T13:30:01.354Z,32.52
2023-05-13T13:32:28.165Z,31.93
2023-05-13T13:34:54.968Z,33.33
2023-05-13T13:37:21.523Z,32.92
2023-05-13T13:39:48.117Z,31.82
2023-05-13T13:42:14.717Z,31.37
2023-05-13T13:44:41.279Z,32.97
2023-05-13T13:47:09.784Z,32.64
2023-05-13T13:49:36.552Z,32.12
2023-05-13T13:52:03.266Z,32.25
2023-05-13T13:54:29.866Z,32.65
2023-05-13T13:56:56.554Z,32.77
2023-05-13T13:59:23.264Z,32.75
2023-05-13T14:01:50.145Z,32.71
2023-05-13T14:04:23.678Z,32.46
2023-05-13T14:06:51.386Z,32.93
2023-05-13T14:09:18.565Z,34.11
2023-05-13T14:11:45.586Z,33.93
2023-05-13T14:14:12.422Z,34.79
2023-05-13T14:16:39.017Z,31.44
2023-05-13T14:19:05.717Z,33.31
2023-05-13T14:21:32.742Z,33.11
2023-05-13T14:23:59.391Z,33.12
2023-05-13T14:26:26.264Z,30.79
2023-05-13T14:28:54.184Z,31.41
2023-05-13T14:31:21.096Z,30.96
2023-05-13T14:33:47.834Z,30.47
2023-05-13T14:36:16.299Z,31.67
2023-05-13T14:38:45.720Z,31.31
2023-05-13T14:41:12.698Z,31.96
2023-05-13T14:43:39.306Z,32.38
2023-05-13T14:46:06.089Z,32.07
2023-05-13T14:48:32.716Z,33.25
2023-05-13T14:50:59.459Z,32.81
2023-05-13T14:53:26.175Z,33.32
2023-05-13T14:55:53.215Z,32.31
2023-05-13T14:58:19.907Z,33.44
2023-05-13T15:00:46.709Z,33.95
2023-05-13T15:03:13.455Z,33.33
2023-05-13T15:05:43.312Z,34.69
2023-05-13T15:08:10.791Z,33.21
2023-05-13T15:10:37.445Z,34.09
2023-05-13T15:13:04.077Z,33.65
2023-05-13T15:15:30.857Z,34.75
2023-05-13T15:17:57.509Z,35.21
2023-05-13T15:20:24.398Z,33.80
2023-05-13T15:22:51.084Z,34.99
2023-05-13T15:25:17.842Z,35.71
2023-05-13T15:27:44.857Z,36.00
2023-05-13T15:30:11.714Z,35.36
2023-05-13T15:32:38.804Z,36.48
2023-05-13T15:35:06.057Z,37.96
2023-05-13T15:37:32.835Z,39.19
2023-05-13T15:39:59.491Z,39.90
2023-05-13T15:42:26.820Z,40.21
2023-05-13T15:44:53.452Z,39.86
2023-05-13T15:47:20.228Z,39.51
2023-05-13T15:49:46.990Z,39.70
2023-05-13T15:52:14.731Z,39.89
2023-05-13T15:54:41.383Z,40.89
2023-05-13T15:57:09.105Z,40.70
2023-05-13T15:59:35.874Z,42.93
2023-05-13T16:02:02.609Z,42.62
2023-05-13T16:04:29.389Z,43.17
2023-05-13T16:06:56.015Z,42.51
2023-05-13T16:09:22.610Z,43.12
2023-05-13T16:11:49.244Z,43.90
2023-05-13T16:14:16.719Z,43.02
2023-05-13T16:16:46.207Z,44.06
2023-05-13T16:19:13.034Z,44.48
2023-05-13T16:21:42.852Z,44.22
2023-05-13T16:24:09.538Z,43.77
2023-05-13T16:26:36.232Z,43.65
2023-05-13T16:29:03.149Z,45.14
2023-05-13T16:31:29.852Z,44.19
2023-05-13T16:33:56.829Z,44.64
2023-05-13T16:36:23.498Z,45.00
2023-05-13T16:38:50.269Z,44.54
2023-05-13T16:41:16.978Z,43.92
2023-05-13T16:43:43.645Z,44.74
2023-05-13T16:46:10.382Z,44.55
2023-05-13T16:48:37.017Z,44.60
2023-05-13T16:51:03.875Z,44.63
2023-05-13T16:53:30.881Z,44.65
2023-05-13T16:55:57.511Z,44.33
2023-05-13T16:58:24.254Z,44.92
2023-05-13T17:00:50.970Z,44.83
2023-05-13T17:03:17.841Z,45.61
2023-05-13T17:05:44.911Z,45.38
2023-05-13T17:08:11.610Z,46.00
2023-05-13T17:10:38.222Z,45.54
2023-05-13T17:13:04.857Z,45.50
2023-05-13T17:15:31.701Z,46.37
2023-05-13T17:17:58.455Z,45.79
2023-05-13T17:20:25.554Z,46.15
2023-05-13T17:22:52.259Z,46.54
2023-05-13T17:25:18.880Z,46.80
2023-05-13T17:27:45.528Z,47.26
2023-05-13T17:30:12.677Z,47.98
2023-05-13T17:32:39.448Z,47.85
2023-05-13T17:35:06.827Z,48.09
2023-05-13T17:37:33.489Z,48.21
2023-05-13T17:40:02.492Z,48.76
2023-05-13T17:42:30.349Z,49.07
2023-05-13T17:44:57.135Z,48.72
2023-05-13T17:47:23.825Z,49.26
2023-05-13T17:49:50.585Z,49.54
2023-05-13T17:52:17.233Z,49.08
2023-05-13T17:54:43.843Z,49.49
2023-05-13T17:57:11.174Z,49.98
2023-05-13T17:59:37.903Z,50.18
2023-05-13T18:02:04.713Z,50.33
2023-05-13T18:04:31.631Z,51.59
2023-05-13T18:06:58.333Z,52.09
2023-05-13T18:09:24.988Z,52.27
2023-05-13T18:11:51.828Z,52.64
2023-05-13T18:14:18.876Z,53.44
2023-05-13T18:16:46.037Z,53.47
2023-05-13T18:19:12.808Z,53.56
2023-05-13T18:21:39.527Z,54.11
2023-05-13T18:24:06.878Z,54.11
2023-05-13T18:26:33.814Z,54.43
2023-05-13T18:29:00.681Z,54.19
2023-05-13T18:31:27.425Z,54.88
2023-05-13T18:33:54.058Z,54.73
2023-05-13T18:36:20.853Z,54.74
2023-05-13T18:38:48.026Z,54.79
2023-05-13T18:41:15.148Z,54.29
2023-05-13T18:43:41.929Z,55.01
2023-05-13T18:46:09.555Z,55.56
2023-05-13T18:48:36.395Z,55.90
2023-05-13T18:51:03.181Z,56.35
2023-05-13T18:53:29.836Z,56.53
2023-05-13T18:55:56.746Z,56.80
2023-05-13T18:58:23.452Z,57.15
2023-05-13T19:00:50.089Z,57.19
2023-05-13T19:03:17.023Z,57.55
2023-05-13T19:05:45.012Z,57.79
2023-05-13T19:08:11.690Z,58.07
2023-05-13T19:10:40.404Z,57.83
2023-05-13T19:13:07.324Z,58.73
2023-05-13T19:15:34.243Z,59.01
2023-05-13T19:18:01.381Z,59.61
2023-05-13T19:20:29.822Z,60.18
2023-05-13T19:22:56.468Z,60.65
2023-05-13T19:25:23.175Z,60.68
2023-05-13T19:27:49.882Z,61.17
2023-05-13T19:30:16.537Z,61.45
2023-05-13T19:32:43.825Z,61.93
2023-05-13T19:35:11.501Z,61.63
2023-05-13T19:37:38.275Z,61.11
2023-05-13T19:40:05.781Z,61.67
2023-05-13T19:42:32.445Z,61.92
2023-05-13T19:44:59.065Z,62.06
2023-05-13T19:47:26.961Z,62.46
2023-05-13T19:49:53.778Z,63.38
2023-05-13T19:52:20.926Z,63.93
2023-05-13T19:54:47.558Z,63.37
2023-05-13T19:57:14.163Z,63.46
2023-05-13T19:59:41.829Z,63.24
2023-05-13T20:02:09.129Z,63.10
2023-05-13T20:04:35.934Z,63.10
2023-05-13T20:07:02.691Z,63.19
2023-05-13T20:09:29.308Z,65.57
2023-05-13T20:11:56.151Z,65.27
2023-05-13T20:14:23.284Z,64.66
2023-05-13T20:16:50.027Z,65.64
2023-05-13T20:19:16.889Z,65.47
2023-05-13T20:21:43.551Z,65.58
2023-05-13T20:24:10.287Z,66.74
2023-05-13T20:26:36.948Z,66.11
2023-05-13T20:29:04.138Z,66.28
2023-05-13T20:31:30.919Z,66.18
2023-05-13T20:33:58.475Z,66.39
2023-05-13T20:36:25.155Z,66.74
2023-05-13T20:38:51.765Z,68.09
2023-05-13T20:41:18.532Z,67.98
2023-05-13T20:43:45.157Z,68.50
2023-05-13T20:46:16.759Z,68.95
2023-05-13T20:48:43.598Z,69.32
2023-05-13T20:51:10.738Z,68.79
2023-05-13T20:53:37.548Z,69.82
2023-05-13T20:56:04.377Z,69.96
2023-05-13T20:58:31.077Z,69.86
2023-05-13T21:00:57.905Z,69.45
2023-05-13T21:03:24.983Z,69.75
2023-05-13T21:05:51.746Z,69.85
2023-05-13T21:08:18.466Z,70.22
2023-05-13T21:10:45.218Z,70.79
2023-05-13T21:13:11.932Z,70.76
2023-05-13T21:15:38.840Z,71.32
2023-05-13T21:18:05.573Z,71.72
2023-05-13T21:20:32.791Z,71.44
2023-05-13T21:23:00.963Z,72.75
2023-05-13T21:25:27.744Z,72.25
2023-05-13T21:27:54.477Z,72.52
2023-05-13T21:30:21.440Z,73.19
2023-05-13T21:32:48.211Z,72.97
2023-05-13T21:35:15.006Z,73.51
2023-05-13T21:37:41.630Z,73.86
2023-05-13T21:40:09.022Z,73.59
2023-05-13T21:42:35.898Z,74.13
2023-05-13T21:45:03.162Z,73.77
2023-05-13T21:47:29.859Z,73.87
2023-05-13T21:49:56.608Z,73.31
2023-05-13T21:52:23.237Z,73.93
2023-05-13T21:54:49.862Z,73.77
2023-05-13T21:57:16.799Z,74.65
2023-05-13T21:59:43.416Z,75.42
2023-05-13T22:02:10.097Z,75.29
2023-05-13T22:04:36.908Z,75.51
2023-05-13T22:07:03.692Z,76.06
2023-05-13T22:09:30.340Z,76.48
2023-05-13T22:11:56.972Z,76.90
2023-05-13T22:14:23.570Z,76.82
2023-05-13T22:17:00.870Z,76.79
2023-05-13T22:19:34.989Z,77.46
2023-05-13T22:22:01.699Z,77.24
2023-05-13T22:24:28.323Z,77.42
2023-05-13T22:26:54.986Z,78.09
2023-05-13T22:29:21.590Z,78.04
2023-05-13T22:31:48.265Z,78.19
2023-05-13T22:34:14.852Z,78.53
2023-05-13T22:36:43.836Z,78.62
2023-05-13T22:39:12.260Z,79.18
2023-05-13T22:41:38.911Z,79.81
2023-05-13T22:44:05.747Z,80.06
2023-05-13T22:46:32.495Z,80.27
2023-05-13T22:48:59.235Z,80.44
2023-05-13T22:51:25.917Z,80.01
2023-05-13T22:53:52.487Z,80.56
2023-05-13T22:56:19.122Z,80.15
2023-05-13T22:58:46.183Z,80.49
2023-05-13T23:01:13.017Z,80.84
2023-05-13T23:03:39.744Z,80.73
2023-05-13T23:06:06.503Z,81.52
2023-05-13T23:08:33.236Z,82.15
2023-05-13T23:10:59.874Z,81.88
2023-05-13T23:13:26.536Z,82.41
2023-05-13T23:15:53.138Z,82.17
2023-05-13T23:18:19.950Z,82.43
2023-05-13T23:20:54.713Z,82.22
2023-05-13T23:23:21.860Z,81.73
2023-05-13T23:25:51.552Z,81.41
2023-05-13T23:28:18.295Z,82.75
2023-05-13T23:30:44.939Z,83.60
2023-05-13T23:33:11.565Z,83.60
2023-05-13T23:35:38.187Z,83.29
2023-05-13T23:38:04.829Z,83.71
2023-05-13T23:40:31.462Z,84.22
2023-05-13T23:42:58.071Z,84.17
2023-05-13T23:45:24.721Z,84.45
2023-05-13T23:47:51.561Z,84.49
2023-05-13T23:50:18.233Z,83.81
2023-05-13T23:52:44.901Z,84.42
2023-05-13T23:55:11.679Z,84.72
2023-05-13T23:57:38.354Z,84.94
